createdAt,value
2018-09-26T00:01:37.621Z,4.70
2018-09-26T00:04:25.337Z,4.70
2018-09-26T00:06:54.631Z,4.60
2018-09-26T00:09:23.892Z,4.60
2018-09-26T00:11:53.136Z,4.60
2018-09-26T00:14:22.425Z,4.60
2018-09-26T00:16:51.641Z,4.60
2018-09-26T00:19:20.900Z,4.60
2018-09-26T00:21:50.138Z,4.60
2018-09-26T00:24:19.395Z,4.50
2018-09-26T00:26:48.630Z,4.50
2018-09-26T00:29:17.884Z,4.40
2018-09-26T00:31:47.132Z,4.30
2018-09-26T00:34:16.385Z,4.30
2018-09-26T00:36:45.609Z,4.30
2018-09-26T00:39:14.898Z,4.30
2018-09-26T00:41:44.153Z,4.30
2018-09-26T00:44:13.435Z,4.20
2018-09-26T00:46:42.747Z,4.20
2018-09-26T00:49:12.026Z,4.30
2018-09-26T00:51:41.354Z,4.20
2018-09-26T00:54:10.647Z,4.20
2018-09-26T00:56:39.930Z,4.10
2018-09-26T00:59:09.193Z,4.10
2018-09-26T01:01:38.445Z,4.10
2018-09-26T01:04:07.726Z,4.00
2018-09-26T01:06:36.962Z,4.00
2018-09-26T01:09:08.745Z,4.00
2018-09-26T01:11:38.127Z,3.90
2018-09-26T01:16:36.399Z,3.80
2018-09-26T01:19:05.646Z,3.80
2018-09-26T01:21:34.998Z,3.80
2018-09-26T01:24:04.251Z,3.70
2018-09-26T01:26:33.509Z,3.60
2018-09-26T01:29:02.783Z,3.60
2018-09-26T01:31:32.058Z,3.60
2018-09-26T01:34:01.361Z,3.60
2018-09-26T01:36:30.644Z,3.60
2018-09-26T01:38:59.899Z,3.60
2018-09-26T01:41:29.223Z,3.60
2018-09-26T01:43:58.459Z,3.50
2018-09-26T01:46:27.739Z,3.40
2018-09-26T01:48:57.002Z,3.40
2018-09-26T01:51:26.253Z,3.40
2018-09-26T01:53:55.514Z,3.30
2018-09-26T01:56:24.783Z,3.20
2018-09-26T01:58:54.098Z,3.20
2018-09-26T02:01:23.381Z,3.20
2018-09-26T02:03:52.637Z,3.20
2018-09-26T02:06:21.895Z,3.20
2018-09-26T02:08:52.232Z,3.20
2018-09-26T02:11:21.502Z,3.20
2018-09-26T02:13:50.770Z,3.20
2018-09-26T02:18:49.066Z,3.20
2018-09-26T02:21:18.358Z,3.10
2018-09-26T02:23:47.707Z,3.10
2018-09-26T02:26:16.899Z,3.10
2018-09-26T02:28:46.199Z,3.10
2018-09-26T02:31:15.527Z,3.10
2018-09-26T02:33:44.838Z,3.00
2018-09-26T02:36:14.415Z,3.00
2018-09-26T02:38:43.666Z,3.10
2018-09-26T02:41:12.905Z,3.10
2018-09-26T02:43:42.117Z,3.10
2018-09-26T02:46:11.386Z,3.10
2018-09-26T02:48:45.893Z,3.00
2018-09-26T02:51:15.178Z,3.00
2018-09-26T02:53:44.558Z,2.90
2018-09-26T02:56:14.002Z,2.90
2018-09-26T02:58:43.303Z,2.90
2018-09-26T03:01:12.619Z,2.90
2018-09-26T03:03:41.901Z,2.80
2018-09-26T03:06:11.205Z,2.80
2018-09-26T03:08:40.488Z,2.80
2018-09-26T03:11:09.775Z,2.80
2018-09-26T03:13:39.050Z,2.80
2018-09-26T03:16:08.358Z,2.80
2018-09-26T03:18:37.672Z,2.80
2018-09-26T03:21:06.890Z,2.80
2018-09-26T03:23:36.142Z,2.80
2018-09-26T03:26:05.374Z,2.80
2018-09-26T03:28:34.631Z,2.80
2018-09-26T03:31:03.859Z,2.80
2018-09-26T03:36:02.111Z,2.70
2018-09-26T03:38:31.367Z,2.70
2018-09-26T03:41:00.645Z,2.70
2018-09-26T03:43:29.917Z,2.70
2018-09-26T03:45:59.205Z,2.70
2018-09-26T03:48:28.531Z,2.70
2018-09-26T03:50:57.790Z,2.60
2018-09-26T03:53:27.048Z,2.60
2018-09-26T03:55:56.293Z,2.60
2018-09-26T03:58:25.533Z,2.60
2018-09-26T04:00:54.823Z,2.60
2018-09-26T04:03:24.086Z,2.50
2018-09-26T04:05:53.346Z,2.50
2018-09-26T04:08:22.637Z,2.50
2018-09-26T04:10:51.917Z,2.40
2018-09-26T04:13:21.185Z,2.40
2018-09-26T04:15:54.515Z,2.40
2018-09-26T04:18:25.886Z,2.30
2018-09-26T04:20:55.916Z,2.40
2018-09-26T04:23:25.217Z,2.40
2018-09-26T04:25:54.459Z,2.40
2018-09-26T04:28:23.761Z,2.30
2018-09-26T04:30:53.003Z,2.30
2018-09-26T04:33:22.442Z,2.30
2018-09-26T04:35:51.622Z,2.30
2018-09-26T04:38:20.907Z,2.30
2018-09-26T04:40:50.237Z,2.30
2018-09-26T04:43:19.545Z,2.30
2018-09-26T04:45:48.812Z,2.20
2018-09-26T04:48:18.029Z,2.20
2018-09-26T04:50:47.413Z,2.20
2018-09-26T04:53:16.605Z,2.10
2018-09-26T04:55:45.906Z,2.20
2018-09-26T04:58:15.194Z,2.30
2018-09-26T05:00:44.402Z,2.30
2018-09-26T05:03:13.707Z,2.20
2018-09-26T05:05:42.992Z,2.30
2018-09-26T05:08:12.224Z,2.30
2018-09-26T05:10:41.460Z,2.30
2018-09-26T05:13:10.739Z,2.20
2018-09-26T05:15:40.035Z,2.20
2018-09-26T05:18:09.309Z,2.10
2018-09-26T05:20:38.608Z,2.20
2018-09-26T05:23:07.922Z,2.30
2018-09-26T05:25:37.180Z,2.30
2018-09-26T05:28:06.480Z,2.30
2018-09-26T05:30:35.842Z,2.30
2018-09-26T05:33:05.093Z,2.40
2018-09-26T05:35:34.322Z,2.50
2018-09-26T05:38:03.568Z,2.50
2018-09-26T05:40:32.902Z,2.60
2018-09-26T05:43:02.159Z,2.60
2018-09-26T05:45:31.487Z,2.60
2018-09-26T05:48:00.818Z,2.60
2018-09-26T05:50:30.156Z,2.60
2018-09-26T05:52:59.469Z,2.60
2018-09-26T05:55:28.713Z,2.70
2018-09-26T05:57:57.959Z,2.70
2018-09-26T06:00:27.205Z,2.80
2018-09-26T06:02:56.525Z,2.80
2018-09-26T06:05:25.823Z,2.90
2018-09-26T06:07:55.217Z,3.00
2018-09-26T06:10:24.538Z,3.10
2018-09-26T06:12:53.884Z,3.10
2018-09-26T06:15:23.214Z,3.20
2018-09-26T06:17:52.478Z,3.30
2018-09-26T06:20:21.751Z,3.50
2018-09-26T06:22:51.035Z,3.60
2018-09-26T06:25:20.509Z,3.80
2018-09-26T06:27:49.780Z,3.90
2018-09-26T06:30:19.106Z,4.10
2018-09-26T06:32:48.375Z,4.30
2018-09-26T06:35:17.627Z,4.50
2018-09-26T06:37:47.083Z,4.70
2018-09-26T06:40:16.456Z,5.00
2018-09-26T06:42:45.743Z,5.10
2018-09-26T06:45:15.012Z,5.30
2018-09-26T06:47:44.294Z,5.50
2018-09-26T06:50:13.600Z,5.60
2018-09-26T06:52:42.878Z,5.70
2018-09-26T06:55:12.158Z,5.80
2018-09-26T06:57:41.411Z,6.00
2018-09-26T07:00:10.713Z,6.10
2018-09-26T07:02:40.000Z,6.20
2018-09-26T07:05:09.309Z,6.30
2018-09-26T07:07:38.605Z,6.50
2018-09-26T07:10:07.958Z,6.70
2018-09-26T07:12:37.214Z,6.90
2018-09-26T07:15:06.518Z,7.10
2018-09-26T07:17:35.842Z,7.20
2018-09-26T07:20:05.217Z,7.40
2018-09-26T07:22:34.494Z,7.60
2018-09-26T07:25:03.788Z,7.70
2018-09-26T07:27:33.102Z,7.90
2018-09-26T07:30:02.379Z,7.90
2018-09-26T07:32:31.718Z,8.10
2018-09-26T07:35:01.124Z,8.20
2018-09-26T07:37:30.382Z,8.40
2018-09-26T07:39:59.666Z,8.60
2018-09-26T07:42:29.025Z,8.70
2018-09-26T07:44:58.285Z,8.90
2018-09-26T07:47:27.520Z,9.10
2018-09-26T07:49:56.869Z,9.20
2018-09-26T07:52:26.200Z,9.40
2018-09-26T07:54:55.498Z,9.50
2018-09-26T07:57:24.834Z,9.50
2018-09-26T07:59:54.150Z,9.80
2018-09-26T08:02:23.446Z,10.00
2018-09-26T08:04:52.738Z,10.20
2018-09-26T08:07:22.083Z,10.40
2018-09-26T08:09:51.416Z,10.50
2018-09-26T08:12:20.730Z,10.80
2018-09-26T08:14:50.005Z,11.10
2018-09-26T08:17:19.284Z,11.30
2018-09-26T08:19:48.579Z,11.70
2018-09-26T08:22:17.994Z,11.90
2018-09-26T08:24:47.302Z,12.00
2018-09-26T08:27:16.634Z,12.00
2018-09-26T08:29:45.915Z,12.20
2018-09-26T08:32:15.197Z,12.50
2018-09-26T08:34:44.467Z,12.60
2018-09-26T08:37:13.735Z,12.90
2018-09-26T08:39:42.994Z,13.10
2018-09-26T08:42:12.330Z,13.30
2018-09-26T08:44:41.594Z,13.40
2018-09-26T08:47:10.813Z,13.40
2018-09-26T08:49:40.146Z,13.40
2018-09-26T08:52:09.450Z,13.40
2018-09-26T08:54:38.791Z,13.40
2018-09-26T08:57:08.306Z,13.40
2018-09-26T08:59:37.648Z,13.40
2018-09-26T09:02:06.893Z,13.30
2018-09-26T09:04:36.142Z,13.20
2018-09-26T09:07:05.395Z,12.90
2018-09-26T09:09:34.665Z,13.00
2018-09-26T09:12:03.994Z,13.00
2018-09-26T09:14:33.453Z,13.20
2018-09-26T09:17:02.709Z,13.30
2018-09-26T09:19:32.075Z,13.50
2018-09-26T09:22:01.431Z,13.60
2018-09-26T09:24:30.737Z,13.70
2018-09-26T09:29:34.630Z,13.70
2018-09-26T09:32:03.989Z,13.70
2018-09-26T09:34:33.301Z,13.80
2018-09-26T09:37:02.800Z,13.80
2018-09-26T09:39:32.103Z,14.00
2018-09-26T09:42:01.522Z,14.10
2018-09-26T09:44:30.931Z,14.10
2018-09-26T09:47:00.259Z,14.20
2018-09-26T09:49:29.719Z,14.50
2018-09-26T09:51:59.045Z,14.70
2018-09-26T09:54:28.358Z,14.90
2018-09-26T09:56:57.750Z,14.90
2018-09-26T09:59:27.143Z,14.60
2018-09-26T10:01:56.500Z,14.60
2018-09-26T10:04:25.951Z,14.60
2018-09-26T10:06:55.203Z,14.70
2018-09-26T10:09:24.469Z,14.80
2018-09-26T10:11:53.723Z,15.00
2018-09-26T10:14:23.016Z,15.10
2018-09-26T10:16:52.278Z,15.10
2018-09-26T10:19:21.593Z,15.10
2018-09-26T10:21:50.874Z,15.20
2018-09-26T10:24:20.183Z,15.40
2018-09-26T10:26:49.574Z,15.50
2018-09-26T10:29:18.811Z,15.60
2018-09-26T10:31:48.088Z,15.60
2018-09-26T10:34:17.357Z,15.70
2018-09-26T10:36:46.576Z,15.60
2018-09-26T10:39:15.825Z,15.60
2018-09-26T10:41:45.088Z,15.60
2018-09-26T10:44:14.449Z,15.70
2018-09-26T10:46:43.689Z,15.90
2018-09-26T10:49:12.927Z,16.00
2018-09-26T10:51:42.187Z,16.30
2018-09-26T10:54:11.447Z,16.40
2018-09-26T10:56:40.851Z,16.50
2018-09-26T10:59:10.160Z,16.50
2018-09-26T11:01:39.488Z,16.60
2018-09-26T11:04:09.093Z,16.60
2018-09-26T11:06:38.315Z,16.70
2018-09-26T11:09:09.454Z,16.90
2018-09-26T11:11:38.741Z,17.10
2018-09-26T11:14:08.220Z,17.20
2018-09-26T11:16:37.524Z,17.30
2018-09-26T11:19:06.992Z,17.50
2018-09-26T11:21:36.271Z,17.60
2018-09-26T11:24:05.505Z,17.70
2018-09-26T11:26:34.775Z,17.80
2018-09-26T11:29:04.042Z,17.90
2018-09-26T11:31:33.694Z,17.90
2018-09-26T11:34:03.057Z,17.90
2018-09-26T11:36:32.358Z,18.00
2018-09-26T11:39:01.861Z,18.10
2018-09-26T11:41:31.159Z,18.30
2018-09-26T11:44:00.478Z,18.30
2018-09-26T11:46:29.780Z,18.30
2018-09-26T11:48:59.074Z,18.30
2018-09-26T11:51:28.403Z,18.30
2018-09-26T11:53:57.678Z,18.30
2018-09-26T11:56:26.995Z,18.50
2018-09-26T11:58:56.305Z,18.60
2018-09-26T12:01:25.587Z,18.70
2018-09-26T12:03:54.878Z,18.60
2018-09-26T12:06:24.339Z,18.60
2018-09-26T12:08:53.568Z,18.60
2018-09-26T12:11:22.880Z,18.50
2018-09-26T12:13:52.199Z,18.60
2018-09-26T12:16:21.556Z,18.90
2018-09-26T12:18:50.760Z,19.00
2018-09-26T12:21:30.254Z,19.10
2018-09-26T12:23:49.270Z,19.30
2018-09-26T12:26:18.535Z,19.30
2018-09-26T12:28:47.787Z,19.30
2018-09-26T12:31:17.067Z,19.30
2018-09-26T12:33:46.367Z,19.30
2018-09-26T12:36:15.751Z,19.30
2018-09-26T12:38:45.052Z,19.30
2018-09-26T12:41:14.383Z,19.20
2018-09-26T12:43:43.688Z,19.30
2018-09-26T12:46:13.548Z,19.20
2018-09-26T12:48:42.866Z,19.30
2018-09-26T12:51:12.138Z,19.30
2018-09-26T12:53:41.457Z,19.50
2018-09-26T12:56:10.694Z,19.60
2018-09-26T12:58:39.958Z,19.70
2018-09-26T13:01:09.237Z,19.80
2018-09-26T13:03:38.664Z,19.70
2018-09-26T13:06:08.060Z,19.80
2018-09-26T13:08:37.352Z,19.90
2018-09-26T13:11:06.688Z,20.10
2018-09-26T13:13:35.991Z,20.10
2018-09-26T13:16:05.252Z,20.10
2018-09-26T13:18:34.551Z,20.10
2018-09-26T13:21:03.860Z,20.20
2018-09-26T13:23:33.196Z,20.40
2018-09-26T13:26:02.519Z,20.40
2018-09-26T13:28:31.810Z,20.50
2018-09-26T13:31:01.142Z,20.50
2018-09-26T13:33:30.395Z,20.50
2018-09-26T13:35:59.723Z,20.50
2018-09-26T13:38:28.999Z,20.60
2018-09-26T13:40:58.261Z,20.60
2018-09-26T13:43:27.649Z,20.40
2018-09-26T13:45:57.077Z,20.40
2018-09-26T13:48:26.280Z,20.40
2018-09-26T13:50:55.708Z,20.40
2018-09-26T13:53:25.110Z,20.40
2018-09-26T13:55:54.986Z,20.40
2018-09-26T13:58:26.192Z,20.50
2018-09-26T14:00:55.467Z,20.50
2018-09-26T14:03:24.778Z,20.50
2018-09-26T14:05:54.060Z,20.50
2018-09-26T14:08:23.407Z,20.50
2018-09-26T14:10:52.662Z,20.50
2018-09-26T14:13:21.955Z,20.50
2018-09-26T14:15:51.222Z,20.50
2018-09-26T14:18:20.573Z,20.60
2018-09-26T14:21:11.717Z,20.50
2018-09-26T14:23:41.154Z,20.40
2018-09-26T14:26:10.533Z,20.30
2018-09-26T14:28:39.922Z,20.20
2018-09-26T14:31:09.367Z,20.10
2018-09-26T14:33:38.834Z,20.20
2018-09-26T14:36:08.270Z,20.10
2018-09-26T14:38:37.823Z,20.20
2018-09-26T14:41:07.333Z,20.10
2018-09-26T14:43:37.442Z,20.10
2018-09-26T14:46:07.835Z,20.00
2018-09-26T14:48:38.396Z,20.00
2018-09-26T14:51:08.341Z,19.90
2018-09-26T14:53:37.796Z,19.80
2018-09-26T14:56:07.245Z,19.80
2018-09-26T14:58:36.574Z,19.80
2018-09-26T15:01:06.294Z,19.80
2018-09-26T15:03:35.671Z,19.70
2018-09-26T15:06:05.075Z,19.70
2018-09-26T15:08:34.436Z,19.70
2018-09-26T15:11:03.778Z,19.70
2018-09-26T15:13:33.160Z,19.60
2018-09-26T15:16:02.537Z,19.50
2018-09-26T15:18:31.953Z,19.40
2018-09-26T15:21:01.557Z,19.20
2018-09-26T15:23:31.474Z,19.00
2018-09-26T15:26:00.955Z,18.90
2018-09-26T15:28:30.407Z,18.80
2018-09-26T15:30:59.794Z,18.80
2018-09-26T15:33:29.096Z,18.90
2018-09-26T15:35:58.428Z,18.90
2018-09-26T15:38:27.775Z,18.70
2018-09-26T15:40:57.173Z,18.70
2018-09-26T15:43:26.514Z,18.70
2018-09-26T15:45:56.373Z,18.70
2018-09-26T15:48:26.208Z,18.60
2018-09-26T15:50:55.624Z,18.50
2018-09-26T15:53:24.947Z,18.40
2018-09-26T15:55:54.263Z,18.40
2018-09-26T15:58:23.956Z,18.30
2018-09-26T16:00:53.197Z,18.30
2018-09-26T16:03:22.662Z,18.30
2018-09-26T16:05:51.923Z,18.20
2018-09-26T16:08:21.229Z,18.10
2018-09-26T16:10:50.521Z,18.00
2018-09-26T16:13:19.820Z,17.90
2018-09-26T16:15:49.252Z,17.80
2018-09-26T16:18:18.543Z,17.70
2018-09-26T16:20:47.766Z,17.70
2018-09-26T16:23:17.078Z,17.60
2018-09-26T16:25:46.382Z,17.50
2018-09-26T16:28:15.674Z,17.50
2018-09-26T16:30:44.985Z,17.50
2018-09-26T16:33:14.324Z,17.50
2018-09-26T16:38:13.017Z,17.30
2018-09-26T16:40:42.371Z,17.20
2018-09-26T16:43:11.802Z,17.10
2018-09-26T16:45:41.043Z,17.00
2018-09-26T16:48:10.306Z,16.80
2018-09-26T16:50:39.566Z,16.70
2018-09-26T16:53:08.820Z,16.50
2018-09-26T16:55:38.115Z,16.40
2018-09-26T16:58:07.539Z,16.20
2018-09-26T17:00:36.799Z,16.10
2018-09-26T17:03:06.104Z,15.90
2018-09-26T17:05:35.443Z,15.70
2018-09-26T17:08:04.754Z,15.60
2018-09-26T17:10:34.069Z,15.40
2018-09-26T17:13:03.371Z,15.30
2018-09-26T17:15:32.735Z,15.20
2018-09-26T17:18:02.208Z,15.10
2018-09-26T17:20:31.573Z,15.00
2018-09-26T17:23:00.888Z,14.80
2018-09-26T17:25:30.150Z,14.70
2018-09-26T17:27:59.516Z,14.60
2018-09-26T17:30:30.544Z,14.40
2018-09-26T17:33:00.882Z,14.20
2018-09-26T17:35:32.609Z,14.10
2018-09-26T17:38:04.203Z,13.90
2018-09-26T17:40:35.998Z,13.80
2018-09-26T17:43:11.222Z,13.60
2018-09-26T17:45:41.884Z,13.50
2018-09-26T17:48:12.794Z,13.40
2018-09-26T17:50:44.070Z,13.30
2018-09-26T17:53:14.746Z,13.20
2018-09-26T17:55:46.042Z,13.10
2018-09-26T17:58:17.015Z,13.00
2018-09-26T18:00:47.462Z,12.80
2018-09-26T18:03:17.576Z,12.80
2018-09-26T18:05:49.138Z,12.60
2018-09-26T18:08:19.946Z,12.50
2018-09-26T18:10:50.212Z,12.40
2018-09-26T18:13:20.452Z,12.30
2018-09-26T18:15:51.064Z,12.20
2018-09-26T18:18:21.540Z,12.20
2018-09-26T18:20:52.241Z,12.10
2018-09-26T18:23:23.110Z,12.00
2018-09-26T18:25:53.727Z,12.00
2018-09-26T18:28:24.941Z,11.90
2018-09-26T18:30:55.734Z,11.90
2018-09-26T18:33:26.116Z,11.80
2018-09-26T18:35:57.402Z,11.70
2018-09-26T18:38:28.489Z,11.60
2018-09-26T18:40:59.958Z,11.50
2018-09-26T18:43:32.140Z,11.40
2018-09-26T18:46:03.690Z,11.30
2018-09-26T18:48:35.827Z,11.20
2018-09-26T18:51:07.327Z,11.20
2018-09-26T18:53:38.628Z,11.10
2018-09-26T18:56:10.085Z,11.00
2018-09-26T18:58:43.551Z,11.00
2018-09-26T19:01:14.088Z,10.90
2018-09-26T19:03:45.210Z,10.80
2018-09-26T19:06:16.155Z,10.80
2018-09-26T19:08:47.324Z,10.80
2018-09-26T19:11:18.893Z,10.70
2018-09-26T19:13:50.919Z,10.70
2018-09-26T19:16:22.080Z,10.60
2018-09-26T19:18:53.602Z,10.60
2018-09-26T19:21:25.883Z,10.60
2018-09-26T19:23:59.362Z,10.50
2018-09-26T19:29:07.005Z,10.40
2018-09-26T19:31:38.637Z,10.40
2018-09-26T19:34:09.709Z,10.40
2018-09-26T19:36:40.477Z,10.30
2018-09-26T19:39:13.051Z,10.20
2018-09-26T19:45:00.511Z,10.20
2018-09-26T19:47:34.403Z,10.10
2018-09-26T19:50:31.725Z,10.10
2018-09-26T19:53:03.004Z,10.00
2018-09-26T19:55:34.539Z,10.00
2018-09-26T19:58:05.361Z,9.90
2018-09-26T20:00:37.223Z,9.90
2018-09-26T20:03:08.666Z,9.90
2018-09-26T20:05:40.168Z,9.80
2018-09-26T20:08:15.947Z,9.80
2018-09-26T20:13:24.482Z,9.60
2018-09-26T20:15:54.868Z,9.50
2018-09-26T20:18:27.652Z,9.50
2018-09-26T20:20:58.223Z,9.40
2018-09-26T20:23:28.979Z,9.40
2018-09-26T20:26:00.751Z,9.30
2018-09-26T20:28:33.178Z,9.30
2018-09-26T20:31:03.624Z,9.20
2018-09-26T20:33:34.038Z,9.20
2018-09-26T20:38:40.904Z,9.10
2018-09-26T20:41:13.020Z,9.10
2018-09-26T20:43:43.447Z,9.10
2018-09-26T20:46:14.341Z,9.00
2018-09-26T20:48:46.902Z,8.90
2018-09-26T20:51:17.727Z,8.80
2018-09-26T20:53:46.975Z,8.70
2018-09-26T20:56:16.268Z,8.70
2018-09-26T20:58:45.583Z,8.60
2018-09-26T21:01:14.826Z,8.60
2018-09-26T21:03:44.226Z,8.60
2018-09-26T21:06:13.546Z,8.50
2018-09-26T21:08:42.827Z,8.50
2018-09-26T21:11:12.139Z,8.50
2018-09-26T21:13:41.520Z,8.40
2018-09-26T21:16:10.892Z,8.40
2018-09-26T21:18:40.198Z,8.40
2018-09-26T21:21:09.544Z,8.40
2018-09-26T21:23:38.839Z,8.40
2018-09-26T21:26:08.138Z,8.30
2018-09-26T21:28:37.507Z,8.30
2018-09-26T21:31:06.880Z,8.20
2018-09-26T21:33:36.161Z,8.20
2018-09-26T21:36:05.426Z,8.20
2018-09-26T21:38:34.798Z,8.20
2018-09-26T21:41:04.131Z,8.20
2018-09-26T21:43:33.464Z,8.20
2018-09-26T21:46:02.914Z,8.20
2018-09-26T21:48:32.345Z,8.20
2018-09-26T21:51:01.636Z,8.10
2018-09-26T21:53:30.970Z,8.10
2018-09-26T21:56:00.314Z,8.00
2018-09-26T21:58:29.642Z,8.00
2018-09-26T22:01:02.891Z,8.00
2018-09-26T22:03:32.756Z,8.00
2018-09-26T22:06:02.145Z,7.90
2018-09-26T22:08:31.475Z,7.90
2018-09-26T22:11:00.828Z,7.80
2018-09-26T22:13:30.136Z,7.80
2018-09-26T22:15:59.415Z,7.80
2018-09-26T22:18:28.740Z,7.80
2018-09-26T22:20:58.054Z,7.80
2018-09-26T22:23:27.379Z,7.70
2018-09-26T22:25:56.660Z,7.60
2018-09-26T22:28:25.989Z,7.60
2018-09-26T22:30:55.319Z,7.60
2018-09-26T22:33:24.578Z,7.60
2018-09-26T22:35:53.869Z,7.60
2018-09-26T22:38:23.154Z,7.50
2018-09-26T22:40:52.433Z,7.50
2018-09-26T22:43:21.750Z,7.50
2018-09-26T22:45:51.090Z,7.50
2018-09-26T22:48:20.386Z,7.40
2018-09-26T22:50:49.671Z,7.40
2018-09-26T22:53:19.003Z,7.40
2018-09-26T22:55:48.290Z,7.40
2018-09-26T22:58:17.568Z,7.40
2018-09-26T23:00:46.837Z,7.40
2018-09-26T23:03:16.210Z,7.30
2018-09-26T23:05:45.506Z,7.30
2018-09-26T23:08:14.783Z,7.30
2018-09-26T23:10:44.072Z,7.30
2018-09-26T23:13:13.350Z,7.20
2018-09-26T23:15:42.639Z,7.20
2018-09-26T23:18:11.939Z,7.30
2018-09-26T23:20:41.291Z,7.30
2018-09-26T23:23:11.530Z,7.30
2018-09-26T23:25:40.890Z,7.20
2018-09-26T23:28:10.180Z,7.10
2018-09-26T23:30:39.460Z,7.10
2018-09-26T23:33:08.784Z,7.10
2018-09-26T23:35:38.049Z,7.10
2018-09-26T23:38:07.382Z,7.10
2018-09-26T23:40:36.700Z,7.10
2018-09-26T23:43:05.982Z,7.00
2018-09-26T23:45:35.267Z,7.10
2018-09-26T23:48:04.583Z,7.00
2018-09-26T23:50:33.886Z,7.00
2018-09-26T23:53:03.263Z,6.90
2018-09-26T23:55:32.534Z,6.90
2018-09-26T23:58:01.818Z,6.90
